Time;durP1;ratioP1;P1;durP2;ratioP2;P2;SDS_P1;SDS_P2;PMS_P1;PMS_P2;Temp;Humidity;BMP_temperature;BMP_pressure;BME280_temperature;BME280_humidity;BME280_pressure;Samples;Min_cycle;Max_cycle;Signal;HPM_P1;HPM_P2
2022/04/17 00:01:02;;;;;;;2.37;1.90;;;;;;;;;;5128538;28;20241;-92
2022/04/17 00:03:29;;;;;;;2.50;2.00;;;;;;;;;;5128927;28;20267;-92
2022/04/17 00:05:57;;;;;;;2.80;2.27;;;;;;;;;;5114317;28;20204;-93
2022/04/17 00:08:24;;;;;;;2.17;1.97;;;;;;;;;;5128251;28;20223;-93
2022/04/17 00:10:52;;;;;;;2.30;2.10;;;;;;;;;;5127587;28;20199;-93
2022/04/17 00:13:21;;;;;;;2.17;2.00;;;;;;;;;;5124272;28;20258;-93
2022/04/17 00:15:51;;;;;;;2.20;1.80;;;;;;;;;;5125489;28;20226;-93
2022/04/17 00:18:18;;;;;;;1.87;1.77;;;;;;;;;;5127937;28;20211;-93
2022/04/17 00:20:45;;;;;;;2.43;2.10;;;;;;;;;;5129282;28;20216;-93
2022/04/17 00:23:13;;;;;;;2.13;2.00;;;;;;;;;;5124150;28;20205;-93
2022/04/17 00:25:40;;;;;;;3.17;2.30;;;;;;;;;;5115311;28;20231;-93
2022/04/17 00:28:08;;;;;;;3.67;1.80;;;;;;;;;;5128456;28;20245;-91
2022/04/17 00:30:35;;;;;;;2.37;2.10;;;;;;;;;;5128190;28;20218;-91
2022/04/17 00:33:04;;;;;;;2.27;2.00;;;;;;;;;;5118911;28;20208;-92
2022/04/17 00:35:32;;;;;;;2.37;2.07;;;;;;;;;;5128812;28;20204;-91
2022/04/17 00:37:59;;;;;;;1.77;1.67;;;;;;;;;;5128615;28;20224;-91
2022/04/17 00:40:26;;;;;;;2.03;1.57;;;;;;;;;;5128071;28;20627;-92
2022/04/17 00:42:53;;;;;;;2.37;1.90;;;;;;;;;;5121573;28;20215;-91
2022/04/17 00:45:21;;;;;;;1.67;1.50;;;;;;;;;;5130141;28;20203;-92
2022/04/17 00:47:48;;;;;;;1.93;1.73;;;;;;;;;;5133618;28;20231;-91
2022/04/17 00:50:17;;;;;;;2.20;2.00;;;;;;;;;;5130492;28;20227;-92
2022/04/17 00:52:44;;;;;;;3.40;1.90;;;;;;;;;;5132794;28;20204;-93
2022/04/17 00:55:12;;;;;;;1.97;1.87;;;;;;;;;;5132810;28;20200;-92
2022/04/17 00:57:42;;;;;;;1.73;1.63;;;;;;;;;;5132101;28;20323;-92
2022/04/17 01:00:10;;;;;;;3.07;1.87;;;;;;;;;;5127205;28;20200;-92
2022/04/17 01:02:37;;;;;;;2.40;1.70;;;;;;;;;;5122807;28;20256;-93
2022/04/17 01:05:04;;;;;;;2.10;1.83;;;;;;;;;;5129533;28;20204;-92
2022/04/17 01:07:33;;;;;;;2.37;1.67;;;;;;;;;;5131196;28;20231;-91
2022/04/17 01:10:03;;;;;;;2.00;1.90;;;;;;;;;;5127863;28;20254;-92
2022/04/17 01:12:31;;;;;;;3.00;1.90;;;;;;;;;;5130295;28;20196;-91
2022/04/17 01:14:58;;;;;;;2.63;1.53;;;;;;;;;;5130171;28;20200;-93
2022/04/17 01:17:25;;;;;;;3.37;2.10;;;;;;;;;;5130153;28;20234;-93
2022/04/17 01:19:53;;;;;;;2.10;1.80;;;;;;;;;;5110882;28;20204;-92
2022/04/17 01:22:22;;;;;;;3.30;1.93;;;;;;;;;;5128630;28;20196;-92
2022/04/17 01:27:36;;;;;;;1.83;1.60;;;;;;;;;;5128116;28;20279;-93
2022/04/17 01:30:03;;;;;;;3.03;1.87;;;;;;;;;;5128686;28;20231;-92
2022/04/17 01:32:31;;;;;;;1.83;1.70;;;;;;;;;;5129502;28;20211;-92
2022/04/17 01:34:58;;;;;;;3.20;1.97;;;;;;;;;;5128248;28;20213;-91
2022/04/17 01:37:27;;;;;;;2.50;1.90;;;;;;;;;;5115842;28;20224;-92
2022/04/17 01:39:54;;;;;;;2.77;2.13;;;;;;;;;;5117653;28;20188;-92
2022/04/17 01:42:21;;;;;;;2.13;1.73;;;;;;;;;;5129095;28;20212;-93
2022/04/17 01:44:51;;;;;;;2.23;2.03;;;;;;;;;;5126084;28;20257;-92
2022/04/17 01:47:18;;;;;;;3.90;2.60;;;;;;;;;;5129341;28;20258;-91
2022/04/17 01:49:45;;;;;;;3.13;2.40;;;;;;;;;;5132044;28;20253;-92
2022/04/17 01:52:13;;;;;;;2.30;2.10;;;;;;;;;;5129323;28;20207;-93
2022/04/17 01:54:41;;;;;;;2.17;1.97;;;;;;;;;;5128760;28;20259;-91
2022/04/17 01:57:09;;;;;;;3.40;2.50;;;;;;;;;;5129943;28;20219;-92
2022/04/17 01:59:36;;;;;;;2.07;1.87;;;;;;;;;;5129913;28;20196;-91
2022/04/17 02:02:04;;;;;;;1.63;1.43;;;;;;;;;;5124151;28;20208;-91
2022/04/17 02:04:35;;;;;;;3.87;2.27;;;;;;;;;;5129474;28;20205;-92
2022/04/17 02:07:02;;;;;;;2.60;2.40;;;;;;;;;;5133457;28;20245;-92
2022/04/17 02:09:30;;;;;;;3.50;2.03;;;;;;;;;;5130725;28;20216;-92
2022/04/17 02:11:59;;;;;;;3.67;2.43;;;;;;;;;;5128240;28;20203;-93
2022/04/17 02:14:26;;;;;;;1.97;1.80;;;;;;;;;;5126308;28;20200;-91
2022/04/17 02:16:53;;;;;;;2.60;2.40;;;;;;;;;;5127269;28;20236;-92
2022/04/17 02:19:21;;;;;;;3.30;2.47;;;;;;;;;;5129438;28;20199;-93
2022/04/17 02:21:48;;;;;;;2.20;1.93;;;;;;;;;;5130175;28;20216;-91
2022/04/17 02:24:15;;;;;;;3.80;2.33;;;;;;;;;;5128661;28;20204;-92
2022/04/17 02:26:42;;;;;;;2.47;2.27;;;;;;;;;;5129666;28;20248;-93
2022/04/17 02:29:11;;;;;;;3.07;2.47;;;;;;;;;;5121109;28;20292;-92
2022/04/17 02:31:39;;;;;;;4.43;1.97;;;;;;;;;;5127525;28;20199;-91
2022/04/17 02:34:07;;;;;;;4.47;2.30;;;;;;;;;;5128292;28;20208;-91
2022/04/17 02:36:34;;;;;;;4.07;2.03;;;;;;;;;;5129484;28;20261;-93
2022/04/17 02:39:01;;;;;;;2.40;2.13;;;;;;;;;;5129138;28;20203;-93
2022/04/17 02:41:29;;;;;;;3.53;2.80;;;;;;;;;;5124949;28;20204;-91
2022/04/17 02:43:56;;;;;;;2.10;1.90;;;;;;;;;;5126206;28;20196;-92
2022/04/17 02:49:10;;;;;;;3.03;2.60;;;;;;;;;;5125741;28;20219;-92
2022/04/17 02:51:37;;;;;;;1.90;1.80;;;;;;;;;;5127433;28;20192;-91
2022/04/17 02:54:04;;;;;;;2.30;2.10;;;;;;;;;;5128074;28;20192;-93
2022/04/17 02:56:31;;;;;;;5.10;2.70;;;;;;;;;;5128129;28;20237;-92
2022/04/17 02:58:59;;;;;;;2.63;2.23;;;;;;;;;;5125107;28;20211;-93
2022/04/17 03:06:57;;;;;;;2.20;2.10;;;;;;;;;;5120076;28;20251;-92
2022/04/17 03:09:24;;;;;;;2.40;2.20;;;;;;;;;;5119237;28;20216;-92
2022/04/17 03:11:52;;;;;;;2.70;2.00;;;;;;;;;;5127099;28;20203;-91
2022/04/17 03:14:19;;;;;;;2.90;2.30;;;;;;;;;;5126611;28;20207;-92
2022/04/17 03:16:48;;;;;;;3.23;2.60;;;;;;;;;;5124060;28;20228;-91
2022/04/17 03:19:15;;;;;;;2.70;2.50;;;;;;;;;;5125200;28;20245;-92
2022/04/17 03:21:42;;;;;;;2.30;2.10;;;;;;;;;;5128208;28;20265;-92
2022/04/17 03:24:10;;;;;;;4.50;3.60;;;;;;;;;;5130877;28;20344;-91
2022/04/17 03:26:41;;;;;;;4.73;2.40;;;;;;;;;;5125371;28;20267;-91
2022/04/17 03:29:08;;;;;;;3.27;2.57;;;;;;;;;;5129857;28;20196;-92
2022/04/17 03:31:35;;;;;;;4.23;2.57;;;;;;;;;;5132159;28;20200;-93
2022/04/17 03:34:05;;;;;;;3.00;2.33;;;;;;;;;;5129340;28;20196;-91
2022/04/17 03:36:32;;;;;;;4.10;2.07;;;;;;;;;;5130647;28;20231;-92
2022/04/17 03:38:59;;;;;;;2.13;1.90;;;;;;;;;;5126877;28;20222;-92
2022/04/17 03:41:27;;;;;;;2.93;2.00;;;;;;;;;;5125304;28;20230;-91
2022/04/17 03:43:54;;;;;;;2.30;2.10;;;;;;;;;;5124733;28;20211;-92
2022/04/17 03:46:21;;;;;;;2.23;2.03;;;;;;;;;;5125479;28;20196;-93
2022/04/17 03:48:48;;;;;;;2.43;1.97;;;;;;;;;;5126831;28;20228;-91
2022/04/17 03:51:17;;;;;;;2.27;2.00;;;;;;;;;;5119775;28;20215;-91
2022/04/17 03:53:44;;;;;;;1.97;1.77;;;;;;;;;;5124661;28;20215;-92
2022/04/17 03:56:12;;;;;;;1.87;1.70;;;;;;;;;;5126323;28;20200;-93
2022/04/17 03:58:39;;;;;;;3.90;2.20;;;;;;;;;;5120165;28;20282;-92
2022/04/17 04:01:06;;;;;;;2.17;1.97;;;;;;;;;;5126591;28;20196;-92
2022/04/17 04:03:34;;;;;;;2.83;2.27;;;;;;;;;;5126267;28;20204;-92
2022/04/17 04:06:01;;;;;;;2.53;2.03;;;;;;;;;;5124995;28;20608;-92
2022/04/17 04:08:30;;;;;;;2.30;2.10;;;;;;;;;;5122888;28;20694;-93
2022/04/17 04:10:57;;;;;;;2.73;2.30;;;;;;;;;;5127877;28;20239;-92
2022/04/17 04:13:25;;;;;;;3.70;3.20;;;;;;;;;;5128663;28;20204;-91
2022/04/17 04:15:53;;;;;;;3.03;2.50;;;;;;;;;;5124703;28;20245;-91
2022/04/17 04:18:20;;;;;;;2.77;2.57;;;;;;;;;;5120055;28;20220;-91
2022/04/17 04:20:47;;;;;;;2.63;2.43;;;;;;;;;;5130787;28;20207;-91
2022/04/17 04:23:14;;;;;;;2.30;2.20;;;;;;;;;;5133946;28;20213;-91
2022/04/17 04:25:43;;;;;;;2.77;2.30;;;;;;;;;;5125331;28;20210;-92
2022/04/17 04:30:56;;;;;;;2.77;2.23;;;;;;;;;;5131800;28;20368;-93
2022/04/17 04:33:23;;;;;;;2.27;2.07;;;;;;;;;;5129723;28;20208;-92
2022/04/17 04:35:51;;;;;;;2.50;2.07;;;;;;;;;;5122580;28;20207;-92
2022/04/17 04:38:18;;;;;;;2.03;1.93;;;;;;;;;;5130590;28;20243;-92
2022/04/17 04:40:47;;;;;;;2.47;2.17;;;;;;;;;;5131894;28;20199;-93
2022/04/17 04:43:14;;;;;;;2.67;2.40;;;;;;;;;;5129271;28;20196;-92
2022/04/17 04:51:12;;;;;;;2.40;2.17;;;;;;;;;;5128727;28;20234;-93
2022/04/17 04:53:39;;;;;;;2.23;2.13;;;;;;;;;;5123072;28;20651;-93
2022/04/17 04:56:08;;;;;;;2.17;2.03;;;;;;;;;;5121268;28;20196;-92
2022/04/17 04:58:36;;;;;;;2.97;2.50;;;;;;;;;;5127610;28;20220;-92
2022/04/17 05:01:03;;;;;;;2.60;2.40;;;;;;;;;;5124816;28;20203;-92
2022/04/17 05:03:30;;;;;;;2.70;2.07;;;;;;;;;;5128385;28;20200;-93
2022/04/17 05:05:57;;;;;;;2.53;2.33;;;;;;;;;;5127469;28;20265;-93
2022/04/17 05:08:25;;;;;;;2.27;2.07;;;;;;;;;;5125795;28;20224;-91
2022/04/17 05:10:52;;;;;;;3.47;2.30;;;;;;;;;;5125352;28;20272;-93
2022/04/17 05:13:21;;;;;;;2.37;2.17;;;;;;;;;;5128410;28;20199;-92
2022/04/17 05:15:48;;;;;;;2.27;2.07;;;;;;;;;;5126997;28;20212;-92
2022/04/17 05:18:16;;;;;;;2.00;1.80;;;;;;;;;;5127747;28;20224;-93
2022/04/17 05:20:43;;;;;;;1.93;1.83;;;;;;;;;;5128829;28;20218;-92
2022/04/17 05:23:19;;;;;;;2.87;2.30;;;;;;;;;;5129044;28;20200;-91
2022/04/17 05:25:47;;;;;;;4.40;2.23;;;;;;;;;;5121398;28;20208;-93
2022/04/17 05:28:14;;;;;;;2.80;2.13;;;;;;;;;;5134052;28;20212;-92
2022/04/17 05:30:43;;;;;;;5.10;2.27;;;;;;;;;;5131723;28;20216;-91
2022/04/17 05:33:10;;;;;;;3.10;2.20;;;;;;;;;;5127830;28;20208;-92
2022/04/17 05:35:38;;;;;;;2.17;1.67;;;;;;;;;;5132647;28;20196;-93
2022/04/17 05:38:06;;;;;;;2.77;2.10;;;;;;;;;;5130421;28;20253;-93
2022/04/17 05:40:37;;;;;;;3.03;2.30;;;;;;;;;;5126831;28;20743;-93
2022/04/17 05:43:04;;;;;;;2.60;2.20;;;;;;;;;;5120537;28;20207;-92
2022/04/17 05:45:32;;;;;;;3.40;2.30;;;;;;;;;;5128704;28;20207;-92
2022/04/17 05:48:01;;;;;;;2.40;2.07;;;;;;;;;;5128378;28;20223;-91
2022/04/17 05:50:29;;;;;;;4.27;2.10;;;;;;;;;;5131999;28;20234;-92
2022/04/17 05:52:57;;;;;;;3.37;2.70;;;;;;;;;;5134615;28;20188;-93
2022/04/17 05:55:24;;;;;;;2.43;2.23;;;;;;;;;;5128331;28;20203;-92
2022/04/17 05:57:51;;;;;;;2.43;2.23;;;;;;;;;;5119379;28;20224;-93
2022/04/17 06:00:21;;;;;;;3.53;2.30;;;;;;;;;;5120613;28;20280;-91
2022/04/17 06:02:49;;;;;;;2.40;2.20;;;;;;;;;;5128560;28;20200;-92
2022/04/17 06:05:19;;;;;;;3.40;2.00;;;;;;;;;;5120603;28;20266;-92
2022/04/17 06:07:46;;;;;;;2.93;2.10;;;;;;;;;;5112756;28;20254;-92
2022/04/17 06:10:14;;;;;;;2.20;1.90;;;;;;;;;;5124262;28;20216;-93
2022/04/17 06:12:42;;;;;;;2.23;2.03;;;;;;;;;;5129403;28;20257;-93
2022/04/17 06:15:10;;;;;;;2.00;1.77;;;;;;;;;;5121523;28;20192;-90
2022/04/17 06:17:38;;;;;;;1.93;1.70;;;;;;;;;;5121781;28;20238;-92
2022/04/17 06:20:06;;;;;;;1.70;1.60;;;;;;;;;;5118538;28;20287;-93
2022/04/17 06:22:37;;;;;;;1.70;1.60;;;;;;;;;;5114651;28;20200;-89
2022/04/17 06:25:05;;;;;;;2.10;2.00;;;;;;;;;;5119583;28;20215;-92
2022/04/17 06:27:40;;;;;;;2.57;1.70;;;;;;;;;;5112194;28;20315;-91
2022/04/17 06:30:12;;;;;;;2.80;2.27;;;;;;;;;;5117539;28;20284;-92
2022/04/17 06:32:39;;;;;;;2.23;2.03;;;;;;;;;;5118201;28;20239;-92
2022/04/17 06:35:09;;;;;;;2.10;1.80;;;;;;;;;;5116691;28;20200;-92
2022/04/17 06:37:48;;;;;;;1.80;1.67;;;;;;;;;;5110869;28;20228;-93
2022/04/17 06:40:17;;;;;;;2.73;1.83;;;;;;;;;;5111164;28;20192;-92
2022/04/17 06:42:45;;;;;;;2.27;2.07;;;;;;;;;;5113945;28;20236;-91
2022/04/17 06:45:15;;;;;;;2.60;1.73;;;;;;;;;;5115751;28;20204;-94
2022/04/17 06:47:48;;;;;;;2.00;1.80;;;;;;;;;;5122232;28;20231;-93
2022/04/17 06:50:20;;;;;;;1.50;1.40;;;;;;;;;;5123661;28;20223;-93
2022/04/17 06:52:49;;;;;;;3.50;1.93;;;;;;;;;;5113402;28;20200;-92
2022/04/17 06:55:16;;;;;;;1.37;1.27;;;;;;;;;;5119154;28;20196;-93
2022/04/17 06:57:48;;;;;;;1.60;1.50;;;;;;;;;;5117143;28;20224;-92
2022/04/17 07:00:17;;;;;;;3.07;1.67;;;;;;;;;;5113585;28;20290;-93
2022/04/17 07:02:44;;;;;;;1.50;1.40;;;;;;;;;;5115268;28;20213;-91
2022/04/17 07:05:13;;;;;;;2.20;1.67;;;;;;;;;;5122701;28;20196;-92
2022/04/17 07:07:40;;;;;;;1.80;1.70;;;;;;;;;;5120532;28;20228;-92
2022/04/17 07:10:10;;;;;;;2.63;1.40;;;;;;;;;;5114749;27;20268;-94
2022/04/17 07:12:37;;;;;;;1.83;1.73;;;;;;;;;;5117577;28;20234;-93
2022/04/17 07:15:06;;;;;;;2.30;1.60;;;;;;;;;;5116843;28;20226;-93
2022/04/17 07:17:34;;;;;;;2.30;2.00;;;;;;;;;;5117138;27;20227;-94
2022/04/17 07:20:02;;;;;;;1.80;1.70;;;;;;;;;;5108905;28;20251;-93
2022/04/17 07:22:29;;;;;;;2.60;1.63;;;;;;;;;;5120614;28;20690;-90
2022/04/17 07:24:57;;;;;;;1.60;1.50;;;;;;;;;;5127134;28;20204;-93
2022/04/17 07:27:26;;;;;;;1.90;1.80;;;;;;;;;;5116068;28;20288;-93
2022/04/17 07:29:53;;;;;;;2.10;1.30;;;;;;;;;;5128242;27;20203;-92
2022/04/17 07:32:21;;;;;;;1.80;1.70;;;;;;;;;;5118682;28;20255;-90
2022/04/17 07:34:50;;;;;;;1.80;1.50;;;;;;;;;;5122485;28;20200;-93
2022/04/17 07:37:25;;;;;;;1.63;1.53;;;;;;;;;;5133803;27;20223;-91
2022/04/17 07:39:53;;;;;;;1.80;1.60;;;;;;;;;;5123834;28;20218;-88
2022/04/17 07:42:21;;;;;;;2.87;1.50;;;;;;;;;;5134709;28;20210;-88
2022/04/17 07:44:50;;;;;;;2.83;1.80;;;;;;;;;;5133914;28;20208;-87
2022/04/17 07:47:17;;;;;;;2.17;1.60;;;;;;;;;;5133845;28;20229;-90
2022/04/17 07:49:44;;;;;;;1.70;1.60;;;;;;;;;;5119230;28;20204;-90
2022/04/17 07:52:12;;;;;;;1.67;1.50;;;;;;;;;;5126718;28;20220;-91
2022/04/17 07:54:40;;;;;;;1.40;1.30;;;;;;;;;;5129109;28;20187;-91
2022/04/17 07:57:13;;;;;;;1.40;1.30;;;;;;;;;;5123709;28;20265;-91
2022/04/17 07:59:41;;;;;;;1.53;1.43;;;;;;;;;;5126564;28;20602;-92
2022/04/17 08:02:22;;;;;;;2.80;1.50;;;;;;;;;;5122310;28;20196;-92
2022/04/17 08:04:50;;;;;;;1.63;1.37;;;;;;;;;;5101467;28;20238;-93
2022/04/17 08:07:17;;;;;;;1.63;1.53;;;;;;;;;;5126078;27;20228;-92
2022/04/17 08:09:45;;;;;;;2.60;1.63;;;;;;;;;;5120361;28;20658;-91
2022/04/17 08:12:12;;;;;;;1.77;1.57;;;;;;;;;;5118772;28;20269;-92
2022/04/17 08:14:39;;;;;;;2.53;1.50;;;;;;;;;;5103689;28;20210;-94
2022/04/17 08:17:07;;;;;;;1.37;1.27;;;;;;;;;;5119356;28;20224;-93
2022/04/17 08:19:36;;;;;;;1.63;1.50;;;;;;;;;;5117618;28;20196;-92
2022/04/17 08:22:03;;;;;;;1.23;1.13;;;;;;;;;;5118953;28;20234;-93
2022/04/17 08:24:30;;;;;;;1.80;1.60;;;;;;;;;;5122522;28;20248;-92
2022/04/17 08:26:59;;;;;;;1.57;1.40;;;;;;;;;;5120583;28;20211;-93
2022/04/17 08:29:26;;;;;;;1.70;1.60;;;;;;;;;;5117783;28;20235;-93
2022/04/17 08:31:54;;;;;;;1.53;1.47;;;;;;;;;;5114445;28;20623;-92
2022/04/17 08:34:21;;;;;;;1.53;1.40;;;;;;;;;;5115593;28;20252;-93
2022/04/17 08:36:50;;;;;;;1.57;1.40;;;;;;;;;;5116420;28;20287;-93
2022/04/17 08:39:17;;;;;;;1.30;1.20;;;;;;;;;;5110719;28;20226;-93
2022/04/17 08:41:46;;;;;;;1.33;1.17;;;;;;;;;;5112774;28;20263;-91
2022/04/17 08:44:13;;;;;;;1.40;1.30;;;;;;;;;;5116910;28;20621;-93
2022/04/17 08:46:41;;;;;;;2.07;1.57;;;;;;;;;;5116773;28;20264;-93
2022/04/17 08:49:10;;;;;;;1.30;1.20;;;;;;;;;;5115894;28;20204;-93
2022/04/17 08:51:38;;;;;;;1.40;1.23;;;;;;;;;;5113079;28;20678;-93
2022/04/17 08:54:07;;;;;;;1.57;1.47;;;;;;;;;;5128948;28;20215;-93
2022/04/17 08:56:36;;;;;;;1.80;1.30;;;;;;;;;;5127515;28;20192;-93
2022/04/17 08:59:04;;;;;;;1.47;1.37;;;;;;;;;;5111584;28;20254;-92
2022/04/17 09:01:32;;;;;;;1.47;1.37;;;;;;;;;;5120093;28;20235;-92
2022/04/17 09:03:59;;;;;;;1.60;1.37;;;;;;;;;;5135616;28;20275;-91
2022/04/17 09:06:27;;;;;;;1.33;1.33;;;;;;;;;;5116140;28;20227;-93
2022/04/17 09:08:58;;;;;;;1.87;1.57;;;;;;;;;;5107935;28;20207;-93
2022/04/17 09:11:31;;;;;;;2.17;1.83;;;;;;;;;;5121511;27;20208;-93
2022/04/17 09:13:58;;;;;;;1.20;1.10;;;;;;;;;;5120387;28;20200;-91
2022/04/17 09:16:29;;;;;;;1.30;1.20;;;;;;;;;;5112670;28;20219;-92
2022/04/17 09:18:57;;;;;;;2.47;1.50;;;;;;;;;;5117977;28;20211;-92
2022/04/17 09:21:32;;;;;;;2.97;1.87;;;;;;;;;;5119066;28;20212;-93
2022/04/17 09:24:14;;;;;;;1.30;1.20;;;;;;;;;;5120332;28;20204;-92
2022/04/17 09:26:50;;;;;;;1.70;1.30;;;;;;;;;;5100905;28;20208;-93
2022/04/17 09:29:20;;;;;;;1.90;1.40;;;;;;;;;;5109180;28;20210;-94
2022/04/17 09:31:49;;;;;;;1.20;1.10;;;;;;;;;;5116999;28;20243;-93
2022/04/17 09:34:16;;;;;;;2.70;1.50;;;;;;;;;;5112916;28;20214;-92
2022/04/17 09:36:44;;;;;;;2.90;1.50;;;;;;;;;;5116868;28;20220;-93
2022/04/17 09:39:12;;;;;;;1.60;1.20;;;;;;;;;;5116705;28;20219;-93
2022/04/17 09:41:53;;;;;;;1.43;1.40;;;;;;;;;;5116041;28;20257;-92
2022/04/17 09:44:35;;;;;;;2.93;1.37;;;;;;;;;;5110587;28;20216;-92
2022/04/17 09:47:03;;;;;;;1.10;1.10;;;;;;;;;;5114261;28;20248;-91
2022/04/17 09:49:31;;;;;;;1.33;1.23;;;;;;;;;;5114747;28;20237;-92
2022/04/17 09:52:08;;;;;;;1.40;1.30;;;;;;;;;;5107498;28;20222;-93
2022/04/17 09:54:35;;;;;;;3.47;1.20;;;;;;;;;;5103831;28;20196;-93
2022/04/17 09:57:04;;;;;;;1.43;1.20;;;;;;;;;;5115368;28;20220;-93
2022/04/17 09:59:32;;;;;;;2.77;1.60;;;;;;;;;;5122948;28;20208;-93
2022/04/17 10:01:59;;;;;;;2.53;1.50;;;;;;;;;;5110405;28;20222;-92
2022/04/17 10:04:27;;;;;;;1.97;1.47;;;;;;;;;;5114133;28;20631;-93
2022/04/17 10:06:56;;;;;;;4.10;1.40;;;;;;;;;;5115479;28;20691;-92
2022/04/17 10:09:23;;;;;;;1.03;1.03;;;;;;;;;;5105973;28;20284;-92
2022/04/17 10:11:51;;;;;;;1.40;1.30;;;;;;;;;;5111812;28;20246;-93
2022/04/17 10:14:20;;;;;;;1.33;1.07;;;;;;;;;;5115712;28;20200;-93
2022/04/17 10:16:48;;;;;;;1.40;1.30;;;;;;;;;;5106975;28;20226;-92
2022/04/17 10:19:16;;;;;;;2.73;1.40;;;;;;;;;;5103987;28;20200;-92
2022/04/17 10:21:44;;;;;;;2.77;1.57;;;;;;;;;;5115422;28;20205;-92
2022/04/17 10:24:13;;;;;;;1.30;1.20;;;;;;;;;;5115564;28;20287;-93
2022/04/17 10:26:42;;;;;;;1.43;1.33;;;;;;;;;;5116425;28;20225;-91
2022/04/17 10:29:21;;;;;;;1.70;1.17;;;;;;;;;;5116760;28;20209;-93
2022/04/17 10:31:59;;;;;;;1.63;1.37;;;;;;;;;;5116388;28;20231;-93
2022/04/17 10:34:42;;;;;;;2.83;1.60;;;;;;;;;;5119700;28;20204;-93
2022/04/17 10:37:21;;;;;;;3.03;1.50;;;;;;;;;;5099832;28;20229;-92
2022/04/17 10:39:50;;;;;;;1.37;1.27;;;;;;;;;;5115106;28;20253;-93
2022/04/17 10:42:17;;;;;;;2.20;1.10;;;;;;;;;;5116926;28;20208;-93
2022/04/17 10:44:45;;;;;;;1.47;1.37;;;;;;;;;;5120402;28;20212;-89
2022/04/17 10:47:20;;;;;;;1.43;1.17;;;;;;;;;;5111041;28;20227;-91
2022/04/17 10:49:56;;;;;;;1.23;1.13;;;;;;;;;;5117364;28;20252;-92
2022/04/17 10:52:28;;;;;;;2.10;1.50;;;;;;;;;;5108449;28;20237;-93
2022/04/17 10:54:56;;;;;;;3.73;1.50;;;;;;;;;;5110564;28;20292;-93
2022/04/17 10:57:24;;;;;;;1.53;1.20;;;;;;;;;;5117644;28;20224;-92
2022/04/17 10:59:51;;;;;;;1.30;1.20;;;;;;;;;;5123332;28;20204;-93
2022/04/17 11:02:30;;;;;;;1.13;0.80;;;;;;;;;;5119146;27;20228;-92
2022/04/17 11:04:57;;;;;;;1.23;1.20;;;;;;;;;;5124435;27;20207;-92
2022/04/17 11:07:29;;;;;;;1.30;1.20;;;;;;;;;;5126278;28;20220;-93
2022/04/17 11:10:19;;;;;;;1.10;1.00;;;;;;;;;;5131968;28;20184;-92
2022/04/17 11:12:47;;;;;;;1.67;1.57;;;;;;;;;;5121136;28;20269;-93
2022/04/17 11:15:32;;;;;;;1.67;1.57;;;;;;;;;;5125998;28;20188;-93
2022/04/17 11:18:06;;;;;;;2.17;1.60;;;;;;;;;;5127904;27;20244;-93
2022/04/17 11:20:34;;;;;;;0.97;0.97;;;;;;;;;;5122271;27;20215;-92
2022/04/17 11:23:01;;;;;;;1.43;1.20;;;;;;;;;;5121038;28;20225;-93
2022/04/17 11:25:29;;;;;;;2.97;1.77;;;;;;;;;;5097684;28;20205;-94
2022/04/17 11:28:02;;;;;;;2.47;1.60;;;;;;;;;;5101718;28;20277;-94
2022/04/17 11:30:34;;;;;;;1.33;1.10;;;;;;;;;;5110073;28;20207;-94
2022/04/17 11:33:02;;;;;;;2.80;1.30;;;;;;;;;;5120219;28;20225;-94
2022/04/17 11:35:31;;;;;;;2.50;1.37;;;;;;;;;;5115567;28;20234;-93
2022/04/17 11:38:01;;;;;;;1.40;1.30;;;;;;;;;;5110716;28;20223;-95
2022/04/17 11:40:29;;;;;;;2.63;1.40;;;;;;;;;;5115508;28;20223;-93
2022/04/17 11:43:04;;;;;;;1.90;1.10;;;;;;;;;;5122239;28;20264;-93
2022/04/17 11:45:32;;;;;;;2.33;1.43;;;;;;;;;;5118849;28;20203;-94
2022/04/17 11:48:04;;;;;;;1.93;1.43;;;;;;;;;;5126598;28;20246;-93
2022/04/17 11:50:33;;;;;;;1.03;1.03;;;;;;;;;;5125492;28;20193;-93
2022/04/17 11:53:01;;;;;;;1.10;1.10;;;;;;;;;;5115238;28;20215;-93
2022/04/17 11:55:29;;;;;;;1.87;1.20;;;;;;;;;;5099800;28;20274;-93
2022/04/17 11:57:57;;;;;;;1.17;0.97;;;;;;;;;;5111257;28;20672;-93
2022/04/17 12:00:25;;;;;;;1.17;1.07;;;;;;;;;;5113219;28;20246;-94
2022/04/17 12:02:57;;;;;;;1.20;1.10;;;;;;;;;;5112007;28;20365;-92
2022/04/17 12:05:24;;;;;;;0.83;0.83;;;;;;;;;;5102111;28;20228;-93
2022/04/17 12:08:04;;;;;;;1.20;1.10;;;;;;;;;;5111064;28;20310;-93
2022/04/17 12:10:32;;;;;;;2.30;1.07;;;;;;;;;;5113028;28;20670;-93
2022/04/17 12:12:59;;;;;;;2.43;1.10;;;;;;;;;;5103327;28;20300;-93
2022/04/17 12:15:26;;;;;;;1.80;1.10;;;;;;;;;;5112759;28;20265;-93
2022/04/17 12:18:00;;;;;;;1.10;0.90;;;;;;;;;;5112696;28;20279;-93
2022/04/17 12:20:28;;;;;;;1.43;1.00;;;;;;;;;;5103457;28;20217;-93
2022/04/17 12:22:55;;;;;;;2.53;1.00;;;;;;;;;;5110520;28;20200;-94
2022/04/17 12:25:25;;;;;;;0.80;0.70;;;;;;;;;;5113254;28;20204;-93
2022/04/17 12:27:53;;;;;;;1.20;1.00;;;;;;;;;;5113097;28;20706;-93
2022/04/17 12:30:21;;;;;;;1.30;1.20;;;;;;;;;;5104763;28;20196;-93
2022/04/17 12:32:49;;;;;;;1.10;1.00;;;;;;;;;;5111835;28;20224;-93
2022/04/17 12:35:24;;;;;;;1.23;1.10;;;;;;;;;;5112858;28;20207;-93
2022/04/17 12:37:52;;;;;;;0.90;0.90;;;;;;;;;;5128262;28;20222;-93
2022/04/17 12:40:20;;;;;;;0.90;0.90;;;;;;;;;;5108327;28;20229;-93
2022/04/17 12:42:49;;;;;;;1.00;0.97;;;;;;;;;;5114601;28;20204;-92
2022/04/17 12:45:24;;;;;;;4.53;1.07;;;;;;;;;;5116559;28;20208;-92
2022/04/17 12:48:01;;;;;;;0.97;0.93;;;;;;;;;;5110595;28;20701;-92
2022/04/17 12:50:28;;;;;;;1.00;1.00;;;;;;;;;;5116220;28;20611;-93
2022/04/17 12:52:57;;;;;;;0.90;0.90;;;;;;;;;;5122939;28;20274;-93
2022/04/17 12:55:34;;;;;;;1.73;1.20;;;;;;;;;;5111075;28;20263;-93
2022/04/17 12:58:10;;;;;;;1.00;1.00;;;;;;;;;;5116477;28;20227;-92
2022/04/17 13:00:38;;;;;;;1.30;0.90;;;;;;;;;;5118684;28;20219;-92
2022/04/17 13:03:12;;;;;;;0.80;0.80;;;;;;;;;;5132422;27;20199;-92
2022/04/17 13:05:40;;;;;;;0.73;0.73;;;;;;;;;;5106487;28;20220;-92
2022/04/17 13:08:07;;;;;;;2.23;1.20;;;;;;;;;;5115653;28;20277;-92
2022/04/17 13:10:35;;;;;;;1.63;1.20;;;;;;;;;;5116755;28;20232;-92
2022/04/17 13:13:04;;;;;;;1.07;0.83;;;;;;;;;;5111451;28;20588;-92
2022/04/17 13:15:32;;;;;;;1.67;1.30;;;;;;;;;;5115860;28;20200;-92
2022/04/17 13:18:00;;;;;;;1.23;1.10;;;;;;;;;;5116047;28;20344;-92
2022/04/17 13:20:28;;;;;;;1.30;1.20;;;;;;;;;;5107997;28;20237;-92
2022/04/17 13:22:55;;;;;;;2.97;1.20;;;;;;;;;;5113359;28;20261;-92
2022/04/17 13:25:23;;;;;;;0.87;0.80;;;;;;;;;;5115401;28;20577;-93
2022/04/17 13:27:51;;;;;;;3.37;1.50;;;;;;;;;;5120243;27;20284;-93
2022/04/17 13:30:20;;;;;;;0.97;0.97;;;;;;;;;;5121615;27;20195;-93
2022/04/17 13:32:48;;;;;;;1.30;1.03;;;;;;;;;;5115012;28;20243;-92
2022/04/17 13:35:15;;;;;;;1.63;1.13;;;;;;;;;;5112168;28;20321;-93
2022/04/17 13:40:30;;;;;;;1.50;1.40;;;;;;;;;;5108842;28;20199;-93
2022/04/17 13:42:58;;;;;;;1.40;1.30;;;;;;;;;;5113484;27;20677;-93
2022/04/17 13:45:27;;;;;;;2.87;1.30;;;;;;;;;;5104371;27;20209;-93
2022/04/17 13:47:54;;;;;;;1.30;1.20;;;;;;;;;;5114783;28;20228;-93
2022/04/17 13:50:21;;;;;;;1.10;1.00;;;;;;;;;;5116667;28;20204;-93
2022/04/17 13:52:49;;;;;;;1.30;1.20;;;;;;;;;;5130079;27;20236;-93
2022/04/17 13:55:18;;;;;;;1.10;1.00;;;;;;;;;;5108395;28;20257;-93
2022/04/17 13:57:46;;;;;;;3.40;1.30;;;;;;;;;;5116873;27;20300;-93
2022/04/17 14:00:14;;;;;;;6.20;1.53;;;;;;;;;;5118478;28;20211;-94
2022/04/17 14:02:42;;;;;;;3.20;1.10;;;;;;;;;;5118309;28;20754;-93
2022/04/17 14:05:10;;;;;;;1.83;1.40;;;;;;;;;;5109652;28;20249;-93
2022/04/17 14:07:37;;;;;;;2.93;1.03;;;;;;;;;;5110252;28;20280;-92
2022/04/17 14:10:05;;;;;;;4.03;1.20;;;;;;;;;;5115002;27;20207;-92
2022/04/17 14:12:33;;;;;;;4.47;1.17;;;;;;;;;;5115917;27;20233;-92
2022/04/17 14:15:00;;;;;;;1.00;0.93;;;;;;;;;;5114520;28;20240;-92
2022/04/17 14:17:27;;;;;;;1.40;1.00;;;;;;;;;;5115351;28;20229;-93
2022/04/17 14:19:57;;;;;;;1.40;1.23;;;;;;;;;;5108720;28;20270;-93
2022/04/17 14:22:43;;;;;;;1.40;1.30;;;;;;;;;;5109658;28;20222;-92
2022/04/17 14:25:10;;;;;;;1.03;1.03;;;;;;;;;;5106222;28;20224;-93
2022/04/17 14:27:38;;;;;;;1.27;1.10;;;;;;;;;;5115285;27;20246;-92
2022/04/17 14:30:05;;;;;;;1.10;1.03;;;;;;;;;;5104572;27;20216;-92
2022/04/17 14:32:33;;;;;;;4.10;1.20;;;;;;;;;;5107182;28;20207;-92
2022/04/17 14:35:01;;;;;;;1.13;1.03;;;;;;;;;;5114139;28;20636;-92
2022/04/17 14:37:29;;;;;;;1.57;1.20;;;;;;;;;;5114094;28;20265;-92
2022/04/17 14:39:56;;;;;;;1.00;1.00;;;;;;;;;;5103898;28;20236;-93
2022/04/17 14:42:23;;;;;;;1.10;1.00;;;;;;;;;;5114285;28;20199;-93
2022/04/17 14:44:50;;;;;;;1.43;1.10;;;;;;;;;;5115221;28;20202;-92
2022/04/17 14:47:19;;;;;;;1.00;1.00;;;;;;;;;;5110816;28;20255;-92
2022/04/17 14:49:46;;;;;;;1.20;1.07;;;;;;;;;;5099597;28;20208;-92
2022/04/17 14:52:15;;;;;;;1.07;1.00;;;;;;;;;;5120376;27;20197;-92
2022/04/17 14:54:42;;;;;;;1.80;1.10;;;;;;;;;;5110360;28;20272;-91
2022/04/17 14:57:10;;;;;;;2.00;1.10;;;;;;;;;;5104703;28;20221;-92
2022/04/17 14:59:40;;;;;;;1.40;1.07;;;;;;;;;;5114532;28;20192;-92
2022/04/17 15:02:08;;;;;;;1.17;1.17;;;;;;;;;;5114601;28;20203;-93
2022/04/17 15:04:35;;;;;;;1.13;1.07;;;;;;;;;;5109296;28;20196;-91
2022/04/17 15:07:02;;;;;;;0.90;0.90;;;;;;;;;;5113141;28;20232;-92
2022/04/17 15:09:31;;;;;;;0.57;0.57;;;;;;;;;;5114008;28;20214;-92
2022/04/17 15:11:59;;;;;;;1.43;1.03;;;;;;;;;;5112401;28;20264;-93
2022/04/17 15:14:26;;;;;;;1.20;0.90;;;;;;;;;;5112798;28;20678;-92